sensor_id;sensor_type;location;lat;lon;timestamp;P1;durP1;ratioP1;P2;durP2;ratioP2
13228;SDS011;6680;53.220;10.402;2024-01-30T00:01:02;5.47;;;4.97;;
13228;SDS011;6680;53.220;10.402;2024-01-30T00:03:29;7.80;;;6.03;;
13228;SDS011;6680;53.220;10.402;2024-01-30T00:05:56;8.33;;;5.20;;
13228;SDS011;6680;53.220;10.402;2024-01-30T00:08:22;7.33;;;5.60;;
13228;SDS011;6680;53.220;10.402;2024-01-30T00:10:51;6.63;;;5.33;;
13228;SDS011;6680;53.220;10.402;2024-01-30T00:13:17;6.20;;;5.43;;
13228;SDS011;6680;53.220;10.402;2024-01-30T00:15:45;6.07;;;5.30;;
13228;SDS011;6680;53.220;10.402;2024-01-30T00:18:11;6.07;;;5.47;;
13228;SDS011;6680;53.220;10.402;2024-01-30T00:20:38;7.53;;;5.63;;
13228;SDS011;6680;53.220;10.402;2024-01-30T00:23:05;6.07;;;5.47;;
13228;SDS011;6680;53.220;10.402;2024-01-30T00:25:32;8.60;;;5.30;;
13228;SDS011;6680;53.220;10.402;2024-01-30T00:28:01;7.50;;;5.40;;
13228;SDS011;6680;53.220;10.402;2024-01-30T00:30:29;6.67;;;6.07;;
13228;SDS011;6680;53.220;10.402;2024-01-30T00:32:56;7.53;;;6.07;;
13228;SDS011;6680;53.220;10.402;2024-01-30T00:35:22;8.10;;;5.33;;
13228;SDS011;6680;53.220;10.402;2024-01-30T00:37:49;10.30;;;5.77;;
13228;SDS011;6680;53.220;10.402;2024-01-30T00:40:16;5.90;;;5.20;;
13228;SDS011;6680;53.220;10.402;2024-01-30T00:42:43;8.47;;;6.10;;
13228;SDS011;6680;53.220;10.402;2024-01-30T00:45:13;10.30;;;6.27;;
13228;SDS011;6680;53.220;10.402;2024-01-30T00:47:40;8.00;;;5.93;;
13228;SDS011;6680;53.220;10.402;2024-01-30T00:50:07;6.50;;;5.60;;
13228;SDS011;6680;53.220;10.402;2024-01-30T00:52:34;8.57;;;6.17;;
13228;SDS011;6680;53.220;10.402;2024-01-30T00:55:01;9.37;;;6.07;;
13228;SDS011;6680;53.220;10.402;2024-01-30T00:57:29;7.67;;;6.17;;
13228;SDS011;6680;53.220;10.402;2024-01-30T00:59:55;6.90;;;5.57;;
13228;SDS011;6680;53.220;10.402;2024-01-30T01:02:24;8.03;;;5.93;;
13228;SDS011;6680;53.220;10.402;2024-01-30T01:04:51;8.20;;;6.27;;
13228;SDS011;6680;53.220;10.402;2024-01-30T01:07:18;8.20;;;6.50;;
13228;SDS011;6680;53.220;10.402;2024-01-30T01:09:44;8.57;;;5.83;;
13228;SDS011;6680;53.220;10.402;2024-01-30T01:12:12;8.60;;;6.33;;
13228;SDS011;6680;53.220;10.402;2024-01-30T01:14:39;10.67;;;6.10;;
13228;SDS011;6680;53.220;10.402;2024-01-30T01:17:07;6.47;;;4.80;;
13228;SDS011;6680;53.220;10.402;2024-01-30T01:19:35;6.60;;;5.90;;
13228;SDS011;6680;53.220;10.402;2024-01-30T01:22:02;8.07;;;6.27;;
13228;SDS011;6680;53.220;10.402;2024-01-30T01:24:30;6.70;;;5.60;;
13228;SDS011;6680;53.220;10.402;2024-01-30T01:26:57;6.73;;;5.57;;
13228;SDS011;6680;53.220;10.402;2024-01-30T01:29:24;9.33;;;6.10;;
13228;SDS011;6680;53.220;10.402;2024-01-30T01:31:53;7.67;;;6.27;;
13228;SDS011;6680;53.220;10.402;2024-01-30T01:34:21;8.73;;;6.20;;
13228;SDS011;6680;53.220;10.402;2024-01-30T01:36:50;8.40;;;6.60;;
13228;SDS011;6680;53.220;10.402;2024-01-30T01:39:20;10.93;;;6.60;;
13228;SDS011;6680;53.220;10.402;2024-01-30T01:41:48;8.77;;;6.30;;
13228;SDS011;6680;53.220;10.402;2024-01-30T01:44:15;7.63;;;5.40;;
13228;SDS011;6680;53.220;10.402;2024-01-30T01:46:42;9.93;;;6.43;;
13228;SDS011;6680;53.220;10.402;2024-01-30T01:49:09;8.90;;;6.07;;
13228;SDS011;6680;53.220;10.402;2024-01-30T01:51:36;7.50;;;6.17;;
13228;SDS011;6680;53.220;10.402;2024-01-30T01:54:07;10.90;;;6.70;;
13228;SDS011;6680;53.220;10.402;2024-01-30T01:56:34;11.07;;;6.27;;
13228;SDS011;6680;53.220;10.402;2024-01-30T01:59:04;7.87;;;6.13;;
13228;SDS011;6680;53.220;10.402;2024-01-30T02:01:33;9.60;;;6.77;;
13228;SDS011;6680;53.220;10.402;2024-01-30T02:04:00;10.80;;;6.23;;
13228;SDS011;6680;53.220;10.402;2024-01-30T02:06:27;8.03;;;5.83;;
13228;SDS011;6680;53.220;10.402;2024-01-30T02:08:54;7.67;;;6.63;;
13228;SDS011;6680;53.220;10.402;2024-01-30T02:11:23;9.30;;;6.23;;
13228;SDS011;6680;53.220;10.402;2024-01-30T02:13:50;8.10;;;6.13;;
13228;SDS011;6680;53.220;10.402;2024-01-30T02:16:17;10.60;;;6.30;;
13228;SDS011;6680;53.220;10.402;2024-01-30T02:18:44;7.97;;;5.63;;
13228;SDS011;6680;53.220;10.402;2024-01-30T02:21:14;9.93;;;6.40;;
13228;SDS011;6680;53.220;10.402;2024-01-30T02:23:42;9.80;;;6.37;;
13228;SDS011;6680;53.220;10.402;2024-01-30T02:26:10;10.67;;;6.10;;
13228;SDS011;6680;53.220;10.402;2024-01-30T02:28:37;7.10;;;6.33;;
13228;SDS011;6680;53.220;10.402;2024-01-30T02:31:05;9.80;;;5.83;;
13228;SDS011;6680;53.220;10.402;2024-01-30T02:33:31;8.47;;;6.37;;
13228;SDS011;6680;53.220;10.402;2024-01-30T02:35:59;8.30;;;6.20;;
13228;SDS011;6680;53.220;10.402;2024-01-30T02:38:27;8.80;;;5.67;;
13228;SDS011;6680;53.220;10.402;2024-01-30T02:40:54;7.70;;;5.80;;
13228;SDS011;6680;53.220;10.402;2024-01-30T02:43:21;8.30;;;6.27;;
13228;SDS011;6680;53.220;10.402;2024-01-30T02:45:48;8.53;;;6.03;;
13228;SDS011;6680;53.220;10.402;2024-01-30T02:48:15;9.40;;;5.97;;
13228;SDS011;6680;53.220;10.402;2024-01-30T02:50:42;7.93;;;5.97;;
13228;SDS011;6680;53.220;10.402;2024-01-30T02:53:09;8.63;;;6.73;;
13228;SDS011;6680;53.220;10.402;2024-01-30T02:55:37;9.03;;;6.47;;
13228;SDS011;6680;53.220;10.402;2024-01-30T02:58:04;10.77;;;6.20;;
13228;SDS011;6680;53.220;10.402;2024-01-30T03:00:31;8.70;;;6.53;;
13228;SDS011;6680;53.220;10.402;2024-01-30T03:02:58;9.33;;;7.00;;
13228;SDS011;6680;53.220;10.402;2024-01-30T03:05:25;10.03;;;6.80;;
13228;SDS011;6680;53.220;10.402;2024-01-30T03:07:52;9.27;;;6.63;;
13228;SDS011;6680;53.220;10.402;2024-01-30T03:10:19;8.40;;;6.37;;
13228;SDS011;6680;53.220;10.402;2024-01-30T03:12:47;8.40;;;6.27;;
13228;SDS011;6680;53.220;10.402;2024-01-30T03:15:14;8.87;;;6.10;;
13228;SDS011;6680;53.220;10.402;2024-01-30T03:17:41;11.40;;;7.10;;
13228;SDS011;6680;53.220;10.402;2024-01-30T03:20:08;7.60;;;6.70;;
13228;SDS011;6680;53.220;10.402;2024-01-30T03:22:36;7.97;;;6.60;;
13228;SDS011;6680;53.220;10.402;2024-01-30T03:25:03;9.83;;;6.70;;
13228;SDS011;6680;53.220;10.402;2024-01-30T03:27:31;8.67;;;6.17;;
13228;SDS011;6680;53.220;10.402;2024-01-30T03:29:59;9.00;;;6.50;;
13228;SDS011;6680;53.220;10.402;2024-01-30T03:32:26;12.77;;;7.20;;
13228;SDS011;6680;53.220;10.402;2024-01-30T03:34:53;11.50;;;7.20;;
13228;SDS011;6680;53.220;10.402;2024-01-30T03:37:20;10.90;;;6.97;;
13228;SDS011;6680;53.220;10.402;2024-01-30T03:39:47;10.93;;;7.30;;
13228;SDS011;6680;53.220;10.402;2024-01-30T03:42:14;9.03;;;7.33;;
13228;SDS011;6680;53.220;10.402;2024-01-30T03:44:41;9.17;;;6.97;;
13228;SDS011;6680;53.220;10.402;2024-01-30T03:47:09;7.67;;;6.57;;
13228;SDS011;6680;53.220;10.402;2024-01-30T03:49:35;7.20;;;5.73;;
13228;SDS011;6680;53.220;10.402;2024-01-30T03:52:03;7.90;;;5.80;;
13228;SDS011;6680;53.220;10.402;2024-01-30T03:54:30;8.87;;;5.77;;
13228;SDS011;6680;53.220;10.402;2024-01-30T03:56:56;11.37;;;6.87;;
13228;SDS011;6680;53.220;10.402;2024-01-30T03:59:23;9.73;;;6.77;;
13228;SDS011;6680;53.220;10.402;2024-01-30T04:01:50;9.73;;;6.37;;
13228;SDS011;6680;53.220;10.402;2024-01-30T04:04:18;10.20;;;7.17;;
13228;SDS011;6680;53.220;10.402;2024-01-30T04:06:45;10.37;;;6.83;;
13228;SDS011;6680;53.220;10.402;2024-01-30T04:09:12;7.77;;;6.80;;
13228;SDS011;6680;53.220;10.402;2024-01-30T04:11:39;13.27;;;7.33;;
13228;SDS011;6680;53.220;10.402;2024-01-30T04:14:07;9.83;;;7.00;;
13228;SDS011;6680;53.220;10.402;2024-01-30T04:16:33;9.10;;;6.73;;
13228;SDS011;6680;53.220;10.402;2024-01-30T04:19:01;8.77;;;6.70;;
13228;SDS011;6680;53.220;10.402;2024-01-30T04:21:29;10.30;;;6.57;;
13228;SDS011;6680;53.220;10.402;2024-01-30T04:23:56;8.77;;;7.13;;
13228;SDS011;6680;53.220;10.402;2024-01-30T04:26:23;9.70;;;7.77;;
13228;SDS011;6680;53.220;10.402;2024-01-30T04:28:50;8.70;;;6.03;;
13228;SDS011;6680;53.220;10.402;2024-01-30T04:31:17;10.03;;;7.27;;
13228;SDS011;6680;53.220;10.402;2024-01-30T04:33:44;11.67;;;7.00;;
13228;SDS011;6680;53.220;10.402;2024-01-30T04:36:11;10.47;;;7.03;;
13228;SDS011;6680;53.220;10.402;2024-01-30T04:38:39;7.47;;;6.33;;
13228;SDS011;6680;53.220;10.402;2024-01-30T04:41:06;11.53;;;7.83;;
13228;SDS011;6680;53.220;10.402;2024-01-30T04:43:33;10.17;;;7.30;;
13228;SDS011;6680;53.220;10.402;2024-01-30T04:46:00;8.13;;;7.07;;
13228;SDS011;6680;53.220;10.402;2024-01-30T04:48:26;11.23;;;7.10;;
13228;SDS011;6680;53.220;10.402;2024-01-30T04:50:53;9.90;;;6.70;;
13228;SDS011;6680;53.220;10.402;2024-01-30T04:53:21;9.10;;;6.73;;
13228;SDS011;6680;53.220;10.402;2024-01-30T04:55:49;9.07;;;6.17;;
13228;SDS011;6680;53.220;10.402;2024-01-30T04:58:16;7.63;;;6.63;;
13228;SDS011;6680;53.220;10.402;2024-01-30T05:00:43;10.17;;;6.63;;
13228;SDS011;6680;53.220;10.402;2024-01-30T05:03:11;8.50;;;6.87;;
13228;SDS011;6680;53.220;10.402;2024-01-30T05:05:37;11.87;;;7.57;;
13228;SDS011;6680;53.220;10.402;2024-01-30T05:08:05;10.43;;;6.60;;
13228;SDS011;6680;53.220;10.402;2024-01-30T05:10:32;7.97;;;6.87;;
13228;SDS011;6680;53.220;10.402;2024-01-30T05:13:00;10.93;;;7.80;;
13228;SDS011;6680;53.220;10.402;2024-01-30T05:15:27;9.37;;;7.20;;
13228;SDS011;6680;53.220;10.402;2024-01-30T05:17:54;9.50;;;7.27;;
13228;SDS011;6680;53.220;10.402;2024-01-30T05:20:21;9.13;;;7.03;;
13228;SDS011;6680;53.220;10.402;2024-01-30T05:22:48;11.53;;;7.67;;
13228;SDS011;6680;53.220;10.402;2024-01-30T05:25:15;10.17;;;7.33;;
13228;SDS011;6680;53.220;10.402;2024-01-30T05:27:41;8.03;;;6.63;;
13228;SDS011;6680;53.220;10.402;2024-01-30T05:30:10;10.97;;;7.13;;
13228;SDS011;6680;53.220;10.402;2024-01-30T05:32:38;8.90;;;6.80;;
13228;SDS011;6680;53.220;10.402;2024-01-30T05:35:05;11.47;;;7.70;;
13228;SDS011;6680;53.220;10.402;2024-01-30T05:37:32;10.00;;;7.00;;
13228;SDS011;6680;53.220;10.402;2024-01-30T05:39:59;11.33;;;7.70;;
13228;SDS011;6680;53.220;10.402;2024-01-30T05:42:26;10.07;;;7.33;;
13228;SDS011;6680;53.220;10.402;2024-01-30T05:44:53;11.90;;;8.23;;
13228;SDS011;6680;53.220;10.402;2024-01-30T05:47:21;11.83;;;8.23;;
13228;SDS011;6680;53.220;10.402;2024-01-30T05:49:48;12.43;;;8.13;;
13228;SDS011;6680;53.220;10.402;2024-01-30T05:52:15;15.37;;;9.40;;
13228;SDS011;6680;53.220;10.402;2024-01-30T05:54:43;11.23;;;8.47;;
13228;SDS011;6680;53.220;10.402;2024-01-30T05:57:10;11.20;;;8.10;;
13228;SDS011;6680;53.220;10.402;2024-01-30T05:59:37;10.73;;;8.77;;
13228;SDS011;6680;53.220;10.402;2024-01-30T06:02:04;11.03;;;8.17;;
13228;SDS011;6680;53.220;10.402;2024-01-30T06:04:32;12.60;;;7.90;;
13228;SDS011;6680;53.220;10.402;2024-01-30T06:06:59;14.80;;;8.60;;
13228;SDS011;6680;53.220;10.402;2024-01-30T06:09:27;11.60;;;8.17;;
13228;SDS011;6680;53.220;10.402;2024-01-30T06:11:54;11.03;;;7.83;;
13228;SDS011;6680;53.220;10.402;2024-01-30T06:14:21;11.97;;;8.53;;
13228;SDS011;6680;53.220;10.402;2024-01-30T06:16:48;12.27;;;7.50;;
13228;SDS011;6680;53.220;10.402;2024-01-30T06:19:14;10.13;;;8.00;;
13228;SDS011;6680;53.220;10.402;2024-01-30T06:21:43;13.87;;;8.93;;
13228;SDS011;6680;53.220;10.402;2024-01-30T06:24:10;12.20;;;9.10;;
13228;SDS011;6680;53.220;10.402;2024-01-30T06:26:37;13.33;;;8.40;;
13228;SDS011;6680;53.220;10.402;2024-01-30T06:29:04;12.83;;;8.20;;
13228;SDS011;6680;53.220;10.402;2024-01-30T06:31:30;10.17;;;8.13;;
13228;SDS011;6680;53.220;10.402;2024-01-30T06:33:57;10.03;;;8.63;;
13228;SDS011;6680;53.220;10.402;2024-01-30T06:36:24;12.47;;;8.60;;
13228;SDS011;6680;53.220;10.402;2024-01-30T06:38:52;10.90;;;8.63;;
13228;SDS011;6680;53.220;10.402;2024-01-30T06:41:19;12.47;;;9.27;;
13228;SDS011;6680;53.220;10.402;2024-01-30T06:43:46;13.40;;;9.47;;
13228;SDS011;6680;53.220;10.402;2024-01-30T06:46:13;13.77;;;8.33;;
13228;SDS011;6680;53.220;10.402;2024-01-30T06:48:39;12.13;;;9.67;;
13228;SDS011;6680;53.220;10.402;2024-01-30T06:51:06;11.53;;;7.27;;
13228;SDS011;6680;53.220;10.402;2024-01-30T06:53:33;11.97;;;8.93;;
13228;SDS011;6680;53.220;10.402;2024-01-30T06:56:02;13.90;;;9.03;;
13228;SDS011;6680;53.220;10.402;2024-01-30T06:58:29;14.00;;;8.90;;
13228;SDS011;6680;53.220;10.402;2024-01-30T07:00:56;16.30;;;10.57;;
13228;SDS011;6680;53.220;10.402;2024-01-30T07:03:23;14.00;;;9.23;;
13228;SDS011;6680;53.220;10.402;2024-01-30T07:05:50;13.27;;;9.07;;
13228;SDS011;6680;53.220;10.402;2024-01-30T07:08:17;11.97;;;9.07;;
13228;SDS011;6680;53.220;10.402;2024-01-30T07:10:44;16.17;;;9.50;;
13228;SDS011;6680;53.220;10.402;2024-01-30T07:13:12;12.97;;;9.17;;
13228;SDS011;6680;53.220;10.402;2024-01-30T07:15:41;16.07;;;10.13;;
13228;SDS011;6680;53.220;10.402;2024-01-30T07:18:08;12.73;;;9.47;;
13228;SDS011;6680;53.220;10.402;2024-01-30T07:20:35;18.43;;;10.10;;
13228;SDS011;6680;53.220;10.402;2024-01-30T07:23:03;15.37;;;10.17;;
13228;SDS011;6680;53.220;10.402;2024-01-30T07:25:30;13.47;;;9.33;;
13228;SDS011;6680;53.220;10.402;2024-01-30T07:27:57;12.07;;;8.43;;
13228;SDS011;6680;53.220;10.402;2024-01-30T07:30:25;12.50;;;8.90;;
13228;SDS011;6680;53.220;10.402;2024-01-30T07:32:52;16.40;;;9.77;;
13228;SDS011;6680;53.220;10.402;2024-01-30T07:35:19;12.67;;;9.23;;
13228;SDS011;6680;53.220;10.402;2024-01-30T07:37:46;12.57;;;8.87;;
13228;SDS011;6680;53.220;10.402;2024-01-30T07:40:13;12.67;;;9.47;;
13228;SDS011;6680;53.220;10.402;2024-01-30T07:42:40;14.23;;;9.00;;
13228;SDS011;6680;53.220;10.402;2024-01-30T07:45:09;13.67;;;8.87;;
13228;SDS011;6680;53.220;10.402;2024-01-30T07:47:37;13.80;;;8.97;;
13228;SDS011;6680;53.220;10.402;2024-01-30T07:50:05;14.03;;;9.30;;
13228;SDS011;6680;53.220;10.402;2024-01-30T07:52:32;15.17;;;9.63;;
13228;SDS011;6680;53.220;10.402;2024-01-30T07:54:59;15.87;;;9.83;;
13228;SDS011;6680;53.220;10.402;2024-01-30T08:03:54;12.67;;;9.00;;
13228;SDS011;6680;53.220;10.402;2024-01-30T08:06:20;13.70;;;9.27;;
13228;SDS011;6680;53.220;10.402;2024-01-30T08:08:47;14.90;;;9.37;;
13228;SDS011;6680;53.220;10.402;2024-01-30T08:11:15;11.43;;;8.90;;
13228;SDS011;6680;53.220;10.402;2024-01-30T08:13:42;13.27;;;9.13;;
13228;SDS011;6680;53.220;10.402;2024-01-30T08:16:09;12.97;;;8.87;;
13228;SDS011;6680;53.220;10.402;2024-01-30T08:18:35;14.20;;;9.33;;
13228;SDS011;6680;53.220;10.402;2024-01-30T08:21:04;13.50;;;9.93;;
13228;SDS011;6680;53.220;10.402;2024-01-30T08:23:31;14.80;;;9.03;;
13228;SDS011;6680;53.220;10.402;2024-01-30T08:25:58;14.10;;;9.43;;
13228;SDS011;6680;53.220;10.402;2024-01-30T08:28:24;11.73;;;8.67;;
13228;SDS011;6680;53.220;10.402;2024-01-30T08:30:51;11.60;;;8.03;;
13228;SDS011;6680;53.220;10.402;2024-01-30T08:33:18;9.90;;;8.10;;
13228;SDS011;6680;53.220;10.402;2024-01-30T08:35:45;10.93;;;8.37;;
13228;SDS011;6680;53.220;10.402;2024-01-30T08:38:13;11.57;;;7.70;;
13228;SDS011;6680;53.220;10.402;2024-01-30T08:40:39;10.47;;;7.80;;
13228;SDS011;6680;53.220;10.402;2024-01-30T08:43:06;10.50;;;8.30;;
13228;SDS011;6680;53.220;10.402;2024-01-30T08:45:35;14.77;;;8.73;;
13228;SDS011;6680;53.220;10.402;2024-01-30T08:48:02;11.20;;;8.87;;
13228;SDS011;6680;53.220;10.402;2024-01-30T08:50:29;14.50;;;9.57;;
13228;SDS011;6680;53.220;10.402;2024-01-30T08:52:56;12.07;;;8.00;;
13228;SDS011;6680;53.220;10.402;2024-01-30T08:55:24;11.20;;;8.27;;
13228;SDS011;6680;53.220;10.402;2024-01-30T08:57:51;12.43;;;8.30;;
13228;SDS011;6680;53.220;10.402;2024-01-30T09:00:18;11.97;;;7.87;;
13228;SDS011;6680;53.220;10.402;2024-01-30T09:02:45;9.77;;;8.00;;
13228;SDS011;6680;53.220;10.402;2024-01-30T09:05:12;9.60;;;7.50;;
13228;SDS011;6680;53.220;10.402;2024-01-30T09:07:39;9.00;;;7.93;;
13228;SDS011;6680;53.220;10.402;2024-01-30T09:10:06;11.37;;;7.17;;
13228;SDS011;6680;53.220;10.402;2024-01-30T09:12:35;9.57;;;8.17;;
13228;SDS011;6680;53.220;10.402;2024-01-30T09:15:02;10.53;;;7.83;;
13228;SDS011;6680;53.220;10.402;2024-01-30T09:17:29;10.87;;;7.77;;
13228;SDS011;6680;53.220;10.402;2024-01-30T09:19:56;10.63;;;7.87;;
13228;SDS011;6680;53.220;10.402;2024-01-30T09:22:23;11.07;;;7.57;;
13228;SDS011;6680;53.220;10.402;2024-01-30T09:24:50;12.20;;;8.20;;
13228;SDS011;6680;53.220;10.402;2024-01-30T09:27:16;9.73;;;7.87;;
13228;SDS011;6680;53.220;10.402;2024-01-30T09:29:45;10.63;;;7.63;;
13228;SDS011;6680;53.220;10.402;2024-01-30T09:32:11;10.67;;;7.70;;
13228;SDS011;6680;53.220;10.402;2024-01-30T09:34:38;10.77;;;7.57;;
13228;SDS011;6680;53.220;10.402;2024-01-30T09:37:06;14.90;;;7.77;;
13228;SDS011;6680;53.220;10.402;2024-01-30T09:39:33;11.80;;;7.10;;
13228;SDS011;6680;53.220;10.402;2024-01-30T09:42:01;9.00;;;7.17;;
13228;SDS011;6680;53.220;10.402;2024-01-30T09:44:31;12.93;;;7.30;;
13228;SDS011;6680;53.220;10.402;2024-01-30T09:47:03;8.53;;;6.47;;
13228;SDS011;6680;53.220;10.402;2024-01-30T09:49:31;9.37;;;7.03;;
13228;SDS011;6680;53.220;10.402;2024-01-30T09:51:58;9.80;;;7.00;;
13228;SDS011;6680;53.220;10.402;2024-01-30T09:54:25;7.70;;;6.90;;
13228;SDS011;6680;53.220;10.402;2024-01-30T09:56:52;9.30;;;6.53;;
13228;SDS011;6680;53.220;10.402;2024-01-30T09:59:19;9.77;;;6.50;;
13228;SDS011;6680;53.220;10.402;2024-01-30T10:01:46;10.63;;;6.93;;
13228;SDS011;6680;53.220;10.402;2024-01-30T10:04:14;9.97;;;7.27;;
13228;SDS011;6680;53.220;10.402;2024-01-30T10:06:41;8.73;;;6.07;;
13228;SDS011;6680;53.220;10.402;2024-01-30T10:09:08;7.87;;;6.47;;
13228;SDS011;6680;53.220;10.402;2024-01-30T10:11:36;8.57;;;6.47;;
13228;SDS011;6680;53.220;10.402;2024-01-30T10:14:03;8.03;;;6.40;;
13228;SDS011;6680;53.220;10.402;2024-01-30T10:16:29;8.23;;;6.37;;
13228;SDS011;6680;53.220;10.402;2024-01-30T10:18:56;10.23;;;7.07;;
13228;SDS011;6680;53.220;10.402;2024-01-30T10:21:24;8.63;;;6.13;;
13228;SDS011;6680;53.220;10.402;2024-01-30T10:23:51;9.43;;;6.80;;
13228;SDS011;6680;53.220;10.402;2024-01-30T10:26:19;10.53;;;6.13;;
13228;SDS011;6680;53.220;10.402;2024-01-30T10:28:47;10.17;;;7.27;;
13228;SDS011;6680;53.220;10.402;2024-01-30T10:31:16;10.97;;;6.97;;
13228;SDS011;6680;53.220;10.402;2024-01-30T10:33:44;8.40;;;5.87;;
13228;SDS011;6680;53.220;10.402;2024-01-30T10:36:13;10.03;;;6.10;;
13228;SDS011;6680;53.220;10.402;2024-01-30T10:38:42;9.60;;;6.10;;
13228;SDS011;6680;53.220;10.402;2024-01-30T10:41:11;6.03;;;5.27;;
13228;SDS011;6680;53.220;10.402;2024-01-30T10:43:41;9.70;;;6.17;;
13228;SDS011;6680;53.220;10.402;2024-01-30T10:46:16;9.23;;;6.77;;
13228;SDS011;6680;53.220;10.402;2024-01-30T10:48:46;8.80;;;5.90;;
13228;SDS011;6680;53.220;10.402;2024-01-30T10:51:21;7.50;;;5.87;;
13228;SDS011;6680;53.220;10.402;2024-01-30T10:53:50;7.50;;;6.03;;
13228;SDS011;6680;53.220;10.402;2024-01-30T10:56:18;8.23;;;6.03;;
13228;SDS011;6680;53.220;10.402;2024-01-30T10:58:48;6.67;;;5.73;;
13228;SDS011;6680;53.220;10.402;2024-01-30T11:01:17;8.53;;;6.13;;
13228;SDS011;6680;53.220;10.402;2024-01-30T11:03:44;8.27;;;6.13;;
13228;SDS011;6680;53.220;10.402;2024-01-30T11:06:12;10.43;;;5.20;;
13228;SDS011;6680;53.220;10.402;2024-01-30T11:08:43;7.23;;;5.50;;
13228;SDS011;6680;53.220;10.402;2024-01-30T11:11:12;9.13;;;5.47;;
13228;SDS011;6680;53.220;10.402;2024-01-30T11:13:39;8.40;;;5.23;;
13228;SDS011;6680;53.220;10.402;2024-01-30T11:16:06;8.03;;;5.53;;
13228;SDS011;6680;53.220;10.402;2024-01-30T11:18:35;9.27;;;5.00;;
13228;SDS011;6680;53.220;10.402;2024-01-30T11:21:04;9.63;;;5.37;;
13228;SDS011;6680;53.220;10.402;2024-01-30T11:23:32;9.40;;;5.60;;
13228;SDS011;6680;53.220;10.402;2024-01-30T11:26:00;6.57;;;4.97;;
13228;SDS011;6680;53.220;10.402;2024-01-30T11:28:33;7.93;;;5.30;;
13228;SDS011;6680;53.220;10.402;2024-01-30T11:31:03;7.47;;;5.13;;
13228;SDS011;6680;53.220;10.402;2024-01-30T11:33:32;6.67;;;5.50;;
13228;SDS011;6680;53.220;10.402;2024-01-30T11:35:59;7.33;;;5.00;;
13228;SDS011;6680;53.220;10.402;2024-01-30T11:38:27;5.53;;;4.70;;
13228;SDS011;6680;53.220;10.402;2024-01-30T11:40:54;6.00;;;4.67;;
13228;SDS011;6680;53.220;10.402;2024-01-30T11:43:22;5.97;;;4.63;;
13228;SDS011;6680;53.220;10.402;2024-01-30T11:45:51;6.47;;;4.83;;
13228;SDS011;6680;53.220;10.402;2024-01-30T11:48:18;5.27;;;4.40;;
13228;SDS011;6680;53.220;10.402;2024-01-30T11:50:45;6.67;;;5.27;;
13228;SDS011;6680;53.220;10.402;2024-01-30T11:53:12;6.77;;;4.60;;
13228;SDS011;6680;53.220;10.402;2024-01-30T11:55:40;7.13;;;4.67;;
13228;SDS011;6680;53.220;10.402;2024-01-30T11:58:06;6.80;;;4.43;;
13228;SDS011;6680;53.220;10.402;2024-01-30T12:00:33;7.77;;;4.63;;
13228;SDS011;6680;53.220;10.402;2024-01-30T12:03:02;7.10;;;5.07;;
13228;SDS011;6680;53.220;10.402;2024-01-30T12:05:31;7.23;;;4.47;;
13228;SDS011;6680;53.220;10.402;2024-01-30T12:07:58;7.10;;;4.90;;
13228;SDS011;6680;53.220;10.402;2024-01-30T12:10:25;7.63;;;5.27;;
13228;SDS011;6680;53.220;10.402;2024-01-30T12:12:52;5.97;;;4.47;;
13228;SDS011;6680;53.220;10.402;2024-01-30T12:15:21;6.80;;;4.90;;
13228;SDS011;6680;53.220;10.402;2024-01-30T12:17:48;6.60;;;5.23;;
13228;SDS011;6680;53.220;10.402;2024-01-30T12:20:18;8.10;;;5.00;;
13228;SDS011;6680;53.220;10.402;2024-01-30T12:22:46;6.13;;;4.27;;
13228;SDS011;6680;53.220;10.402;2024-01-30T12:25:14;8.27;;;5.03;;
13228;SDS011;6680;53.220;10.402;2024-01-30T12:27:42;6.40;;;5.10;;
13228;SDS011;6680;53.220;10.402;2024-01-30T12:30:10;5.00;;;4.13;;
13228;SDS011;6680;53.220;10.402;2024-01-30T12:32:39;5.87;;;4.67;;
13228;SDS011;6680;53.220;10.402;2024-01-30T12:35:07;5.43;;;4.53;;
13228;SDS011;6680;53.220;10.402;2024-01-30T12:37:35;5.47;;;4.70;;
13228;SDS011;6680;53.220;10.402;2024-01-30T12:40:02;6.47;;;4.60;;
13228;SDS011;6680;53.220;10.402;2024-01-30T12:42:31;6.57;;;4.70;;
13228;SDS011;6680;53.220;10.402;2024-01-30T12:44:58;6.90;;;4.67;;
13228;SDS011;6680;53.220;10.402;2024-01-30T12:47:25;5.50;;;4.37;;
13228;SDS011;6680;53.220;10.402;2024-01-30T12:49:52;5.50;;;4.60;;
13228;SDS011;6680;53.220;10.402;2024-01-30T12:52:19;5.70;;;4.60;;
13228;SDS011;6680;53.220;10.402;2024-01-30T12:54:48;5.43;;;4.60;;
13228;SDS011;6680;53.220;10.402;2024-01-30T12:57:15;6.03;;;4.27;;
13228;SDS011;6680;53.220;10.402;2024-01-30T12:59:42;9.00;;;4.67;;
13228;SDS011;6680;53.220;10.402;2024-01-30T13:02:09;7.20;;;4.60;;
13228;SDS011;6680;53.220;10.402;2024-01-30T13:04:36;6.40;;;4.47;;
13228;SDS011;6680;53.220;10.402;2024-01-30T13:07:03;6.20;;;4.60;;
13228;SDS011;6680;53.220;10.402;2024-01-30T13:09:30;6.13;;;4.10;;
13228;SDS011;6680;53.220;10.402;2024-01-30T13:11:58;7.40;;;4.50;;
13228;SDS011;6680;53.220;10.402;2024-01-30T13:14:25;5.33;;;4.40;;
13228;SDS011;6680;53.220;10.402;2024-01-30T13:16:53;7.37;;;4.90;;
13228;SDS011;6680;53.220;10.402;2024-01-30T13:19:19;6.67;;;4.57;;
13228;SDS011;6680;53.220;10.402;2024-01-30T13:21:46;6.47;;;4.40;;
13228;SDS011;6680;53.220;10.402;2024-01-30T13:24:13;5.20;;;4.30;;
13228;SDS011;6680;53.220;10.402;2024-01-30T13:26:42;6.23;;;4.37;;
13228;SDS011;6680;53.220;10.402;2024-01-30T13:29:10;4.93;;;4.13;;
13228;SDS011;6680;53.220;10.402;2024-01-30T13:31:37;4.87;;;4.00;;
13228;SDS011;6680;53.220;10.402;2024-01-30T13:34:04;7.07;;;4.90;;
13228;SDS011;6680;53.220;10.402;2024-01-30T13:36:32;6.43;;;4.97;;
13228;SDS011;6680;53.220;10.402;2024-01-30T13:38:59;6.60;;;5.17;;
13228;SDS011;6680;53.220;10.402;2024-01-30T13:41:25;8.30;;;4.80;;
13228;SDS011;6680;53.220;10.402;2024-01-30T13:43:52;7.63;;;5.10;;
13228;SDS011;6680;53.220;10.402;2024-01-30T13:46:20;5.73;;;3.83;;
13228;SDS011;6680;53.220;10.402;2024-01-30T13:48:47;7.43;;;4.90;;
13228;SDS011;6680;53.220;10.402;2024-01-30T13:51:14;7.40;;;4.67;;
13228;SDS011;6680;53.220;10.402;2024-01-30T13:53:42;8.63;;;4.57;;
13228;SDS011;6680;53.220;10.402;2024-01-30T13:56:09;6.50;;;4.57;;
13228;SDS011;6680;53.220;10.402;2024-01-30T13:58:36;5.70;;;4.13;;
13228;SDS011;6680;53.220;10.402;2024-01-30T14:01:03;5.53;;;4.63;;
13228;SDS011;6680;53.220;10.402;2024-01-30T14:03:31;5.13;;;3.87;;
13228;SDS011;6680;53.220;10.402;2024-01-30T14:05:58;6.73;;;4.57;;
13228;SDS011;6680;53.220;10.402;2024-01-30T14:08:25;6.67;;;4.80;;
13228;SDS011;6680;53.220;10.402;2024-01-30T14:10:53;6.37;;;4.87;;
13228;SDS011;6680;53.220;10.402;2024-01-30T14:13:20;5.67;;;4.10;;
13228;SDS011;6680;53.220;10.402;2024-01-30T14:15:47;6.57;;;4.53;;
13228;SDS011;6680;53.220;10.402;2024-01-30T14:18:14;5.37;;;4.10;;
13228;SDS011;6680;53.220;10.402;2024-01-30T14:20:43;5.73;;;4.53;;
13228;SDS011;6680;53.220;10.402;2024-01-30T14:23:10;5.50;;;4.50;;
13228;SDS011;6680;53.220;10.402;2024-01-30T14:25:37;4.87;;;4.27;;
13228;SDS011;6680;53.220;10.402;2024-01-30T14:28:04;6.43;;;3.93;;
13228;SDS011;6680;53.220;10.402;2024-01-30T14:30:31;6.27;;;4.57;;
13228;SDS011;6680;53.220;10.402;2024-01-30T14:32:58;6.50;;;4.10;;
13228;SDS011;6680;53.220;10.402;2024-01-30T14:35:25;10.53;;;4.63;;
13228;SDS011;6680;53.220;10.402;2024-01-30T14:37:53;7.53;;;4.87;;
13228;SDS011;6680;53.220;10.402;2024-01-30T14:40:20;6.57;;;3.80;;
13228;SDS011;6680;53.220;10.402;2024-01-30T14:42:47;8.50;;;4.37;;
13228;SDS011;6680;53.220;10.402;2024-01-30T14:45:14;7.40;;;5.20;;
13228;SDS011;6680;53.220;10.402;2024-01-30T14:47:41;7.47;;;4.93;;
13228;SDS011;6680;53.220;10.402;2024-01-30T14:50:08;6.03;;;4.50;;